sensor_id;sensor_type;location;lat;lon;timestamp;pressure;altitude;pressure_sealevel;temperature;humidity
41234;BME280;26968;42.686;23.352;2023-03-22T00:02:23;94917.75;;;10.45;83.79
41234;BME280;26968;42.686;23.352;2023-03-22T00:04:50;94883.81;;;10.08;82.37
41234;BME280;26968;42.686;23.352;2023-03-22T00:07:16;94868.22;;;10.06;82.54
41234;BME280;26968;42.686;23.352;2023-03-22T00:09:42;94881.06;;;10.23;82.25
41234;BME280;26968;42.686;23.352;2023-03-22T00:12:07;94899.47;;;10.43;82.07
41234;BME280;26968;42.686;23.352;2023-03-22T00:14:33;94917.66;;;10.55;81.47
41234;BME280;26968;42.686;23.352;2023-03-22T00:16:58;94836.69;;;10.05;81.93
41234;BME280;26968;42.686;23.352;2023-03-22T00:19:23;94855.72;;;10.12;81.80
41234;BME280;26968;42.686;23.352;2023-03-22T00:21:49;94918.38;;;10.32;81.51
41234;BME280;26968;42.686;23.352;2023-03-22T00:24:15;94838.44;;;9.47;82.10
41234;BME280;26968;42.686;23.352;2023-03-22T00:26:40;94883.63;;;9.99;82.54
41234;BME280;26968;42.686;23.352;2023-03-22T00:29:06;94825.16;;;9.03;84.08
41234;BME280;26968;42.686;23.352;2023-03-22T00:31:31;94906.13;;;9.58;85.53
41234;BME280;26968;42.686;23.352;2023-03-22T00:33:57;94849.41;;;9.25;86.17
41234;BME280;26968;42.686;23.352;2023-03-22T00:36:22;94838.09;;;9.14;85.81
41234;BME280;26968;42.686;23.352;2023-03-22T00:38:48;94895.41;;;9.83;86.03
41234;BME280;26968;42.686;23.352;2023-03-22T00:41:16;94895.94;;;9.80;85.60
41234;BME280;26968;42.686;23.352;2023-03-22T00:43:42;94875.88;;;9.74;85.01
41234;BME280;26968;42.686;23.352;2023-03-22T00:46:09;94871.38;;;9.69;84.52
41234;BME280;26968;42.686;23.352;2023-03-22T00:48:35;94864.22;;;9.26;85.55
41234;BME280;26968;42.686;23.352;2023-03-22T00:51:00;94785.50;;;8.43;87.89
41234;BME280;26968;42.686;23.352;2023-03-22T00:53:26;94864.84;;;9.03;89.09
41234;BME280;26968;42.686;23.352;2023-03-22T00:55:54;94894.44;;;9.15;88.15
41234;BME280;26968;42.686;23.352;2023-03-22T00:58:20;94894.91;;;9.27;88.26
41234;BME280;26968;42.686;23.352;2023-03-22T01:00:46;94889.03;;;9.40;88.61
41234;BME280;26968;42.686;23.352;2023-03-22T01:03:12;94896.19;;;9.35;86.81
41234;BME280;26968;42.686;23.352;2023-03-22T01:05:41;94855.47;;;9.31;87.69
41234;BME280;26968;42.686;23.352;2023-03-22T01:08:09;94894.38;;;9.30;86.95
41234;BME280;26968;42.686;23.352;2023-03-22T01:10:36;94858.75;;;9.07;87.56
41234;BME280;26968;42.686;23.352;2023-03-22T01:13:01;94860.25;;;8.59;88.04
41234;BME280;26968;42.686;23.352;2023-03-22T01:15:27;94891.38;;;8.82;89.16
41234;BME280;26968;42.686;23.352;2023-03-22T01:17:53;94844.44;;;8.34;90.09
41234;BME280;26968;42.686;23.352;2023-03-22T01:20:18;94870.81;;;8.69;90.97
41234;BME280;26968;42.686;23.352;2023-03-22T01:22:44;94816.44;;;8.23;90.63
41234;BME280;26968;42.686;23.352;2023-03-22T01:25:09;94832.81;;;8.35;90.48
41234;BME280;26968;42.686;23.352;2023-03-22T01:27:35;94879.00;;;8.68;90.92
41234;BME280;26968;42.686;23.352;2023-03-22T01:30:00;94881.63;;;8.63;90.88
41234;BME280;26968;42.686;23.352;2023-03-22T01:32:26;94877.97;;;8.48;91.41
41234;BME280;26968;42.686;23.352;2023-03-22T01:34:51;94814.59;;;8.08;91.02
41234;BME280;26968;42.686;23.352;2023-03-22T01:37:18;94789.50;;;8.10;90.85
41234;BME280;26968;42.686;23.352;2023-03-22T01:39:43;94878.72;;;8.69;89.82
41234;BME280;26968;42.686;23.352;2023-03-22T01:42:12;94792.38;;;8.09;89.59
41234;BME280;26968;42.686;23.352;2023-03-22T01:44:41;94878.47;;;8.61;90.17
41234;BME280;26968;42.686;23.352;2023-03-22T01:47:07;94871.59;;;8.60;90.13
41234;BME280;26968;42.686;23.352;2023-03-22T01:49:35;94810.09;;;8.13;91.34
41234;BME280;26968;42.686;23.352;2023-03-22T01:52:11;94845.97;;;8.50;91.65
41234;BME280;26968;42.686;23.352;2023-03-22T01:54:45;94824.06;;;8.24;89.83
41234;BME280;26968;42.686;23.352;2023-03-22T01:57:11;94862.13;;;8.38;89.71
41234;BME280;26968;42.686;23.352;2023-03-22T01:59:38;94815.94;;;7.75;90.49
41234;BME280;26968;42.686;23.352;2023-03-22T02:02:05;94824.13;;;7.99;91.24
41234;BME280;26968;42.686;23.352;2023-03-22T02:04:35;94850.47;;;8.24;90.81
41234;BME280;26968;42.686;23.352;2023-03-22T02:07:12;94866.84;;;8.57;91.03
41234;BME280;26968;42.686;23.352;2023-03-22T02:09:40;94808.78;;;8.31;91.99
41234;BME280;26968;42.686;23.352;2023-03-22T02:12:28;94833.03;;;8.54;90.86
41234;BME280;26968;42.686;23.352;2023-03-22T02:15:22;94870.72;;;8.89;91.47
41234;BME280;26968;42.686;23.352;2023-03-22T02:29:07;94874.34;;;9.09;89.60
41234;BME280;26968;42.686;23.352;2023-03-22T02:39:36;94879.97;;;8.97;87.52
41234;BME280;26968;42.686;23.352;2023-03-22T02:55:30;94890.63;;;8.67;90.69
41234;BME280;26968;42.686;23.352;2023-03-22T02:58:11;94890.13;;;8.39;90.51
41234;BME280;26968;42.686;23.352;2023-03-22T03:00:39;94825.69;;;7.90;91.51
41234;BME280;26968;42.686;23.352;2023-03-22T03:03:08;94892.75;;;8.24;91.77
41234;BME280;26968;42.686;23.352;2023-03-22T03:05:38;94855.50;;;8.26;91.68
41234;BME280;26968;42.686;23.352;2023-03-22T03:08:06;94892.22;;;8.58;92.07
41234;BME280;26968;42.686;23.352;2023-03-22T03:10:34;94819.59;;;8.35;92.34
41234;BME280;26968;42.686;23.352;2023-03-22T03:13:00;94861.22;;;8.78;91.26
41234;BME280;26968;42.686;23.352;2023-03-22T03:15:25;94895.59;;;8.88;89.59
41234;BME280;26968;42.686;23.352;2023-03-22T03:23:25;94862.38;;;8.22;89.63
41234;BME280;26968;42.686;23.352;2023-03-22T03:25:58;94897.75;;;8.66;89.95
41234;BME280;26968;42.686;23.352;2023-03-22T03:31:36;94902.53;;;8.69;88.94
41234;BME280;26968;42.686;23.352;2023-03-22T03:36:32;94857.09;;;8.32;90.74
41234;BME280;26968;42.686;23.352;2023-03-22T03:39:00;94857.88;;;8.47;90.88
41234;BME280;26968;42.686;23.352;2023-03-22T03:41:27;94906.97;;;8.79;89.67
41234;BME280;26968;42.686;23.352;2023-03-22T03:43:55;94860.28;;;8.44;87.86
41234;BME280;26968;42.686;23.352;2023-03-22T03:46:23;94898.75;;;8.85;88.74
41234;BME280;26968;42.686;23.352;2023-03-22T03:48:50;94870.25;;;8.72;88.14
41234;BME280;26968;42.686;23.352;2023-03-22T03:51:17;94906.63;;;9.01;86.71
41234;BME280;26968;42.686;23.352;2023-03-22T03:53:42;94811.13;;;8.33;86.40
41234;BME280;26968;42.686;23.352;2023-03-22T03:56:09;94808.75;;;8.36;85.89
41234;BME280;26968;42.686;23.352;2023-03-22T03:58:35;94853.63;;;8.62;87.27
41234;BME280;26968;42.686;23.352;2023-03-22T04:01:00;94876.59;;;8.76;86.26
41234;BME280;26968;42.686;23.352;2023-03-22T04:03:27;94894.00;;;8.77;87.11
41234;BME280;26968;42.686;23.352;2023-03-22T04:05:53;94885.00;;;8.88;87.02
41234;BME280;26968;42.686;23.352;2023-03-22T04:08:18;94886.63;;;8.84;86.40
41234;BME280;26968;42.686;23.352;2023-03-22T04:10:48;94919.31;;;9.09;87.05
41234;BME280;26968;42.686;23.352;2023-03-22T04:13:14;94889.00;;;8.81;87.13
41234;BME280;26968;42.686;23.352;2023-03-22T04:15:40;94852.06;;;8.50;87.22
41234;BME280;26968;42.686;23.352;2023-03-22T04:18:05;94849.44;;;8.40;88.13
41234;BME280;26968;42.686;23.352;2023-03-22T04:20:31;94831.75;;;8.36;87.66
41234;BME280;26968;42.686;23.352;2023-03-22T04:22:56;94919.66;;;8.87;87.43
41234;BME280;26968;42.686;23.352;2023-03-22T04:25:22;94928.63;;;8.96;87.58
41234;BME280;26968;42.686;23.352;2023-03-22T04:27:47;94891.44;;;8.57;87.30
41234;BME280;26968;42.686;23.352;2023-03-22T04:30:16;94879.00;;;8.58;87.81
41234;BME280;26968;42.686;23.352;2023-03-22T04:32:45;94830.44;;;8.08;87.50
41234;BME280;26968;42.686;23.352;2023-03-22T04:35:11;94902.84;;;8.37;86.87
41234;BME280;26968;42.686;23.352;2023-03-22T04:37:37;94913.13;;;8.39;88.69
41234;BME280;26968;42.686;23.352;2023-03-22T04:40:02;94858.16;;;8.10;88.10
41234;BME280;26968;42.686;23.352;2023-03-22T04:42:31;94883.00;;;8.35;88.92
41234;BME280;26968;42.686;23.352;2023-03-22T04:44:57;94874.81;;;8.21;89.17
41234;BME280;26968;42.686;23.352;2023-03-22T04:47:22;94861.59;;;8.36;89.04
41234;BME280;26968;42.686;23.352;2023-03-22T04:49:47;94931.56;;;8.89;88.85
41234;BME280;26968;42.686;23.352;2023-03-22T04:52:13;94889.03;;;8.56;88.08
41234;BME280;26968;42.686;23.352;2023-03-22T04:54:39;94927.91;;;8.65;88.10
41234;BME280;26968;42.686;23.352;2023-03-22T04:57:05;94897.00;;;8.45;86.86
41234;BME280;26968;42.686;23.352;2023-03-22T04:59:31;94930.00;;;8.63;88.92
41234;BME280;26968;42.686;23.352;2023-03-22T05:01:56;94905.19;;;8.19;87.62
41234;BME280;26968;42.686;23.352;2023-03-22T05:04:22;94945.06;;;8.17;89.70
41234;BME280;26968;42.686;23.352;2023-03-22T05:06:48;94914.41;;;7.96;90.91
41234;BME280;26968;42.686;23.352;2023-03-22T05:09:14;94952.47;;;8.30;90.46
41234;BME280;26968;42.686;23.352;2023-03-22T05:11:40;94960.38;;;8.20;90.56
41234;BME280;26968;42.686;23.352;2023-03-22T05:14:08;94948.47;;;8.02;90.07
41234;BME280;26968;42.686;23.352;2023-03-22T05:16:34;94893.25;;;7.70;90.35
41234;BME280;26968;42.686;23.352;2023-03-22T05:19:00;94882.97;;;7.79;91.30
41234;BME280;26968;42.686;23.352;2023-03-22T05:21:27;94963.59;;;8.42;90.62
41234;BME280;26968;42.686;23.352;2023-03-22T05:23:55;94893.03;;;7.97;90.85
41234;BME280;26968;42.686;23.352;2023-03-22T05:26:21;94945.88;;;8.33;90.38
41234;BME280;26968;42.686;23.352;2023-03-22T05:28:49;94971.25;;;8.64;90.20
41234;BME280;26968;42.686;23.352;2023-03-22T05:31:16;94976.28;;;8.76;89.18
41234;BME280;26968;42.686;23.352;2023-03-22T05:33:42;94974.94;;;8.63;88.73
41234;BME280;26968;42.686;23.352;2023-03-22T05:36:10;94894.38;;;8.00;89.06
41234;BME280;26968;42.686;23.352;2023-03-22T05:38:36;94934.53;;;8.37;89.17
41234;BME280;26968;42.686;23.352;2023-03-22T05:41:02;94953.56;;;8.60;89.40
41234;BME280;26968;42.686;23.352;2023-03-22T05:43:27;94902.78;;;8.17;88.59
41234;BME280;26968;42.686;23.352;2023-03-22T05:45:53;94908.09;;;8.32;89.72
41234;BME280;26968;42.686;23.352;2023-03-22T05:48:19;94884.31;;;8.12;88.38
41234;BME280;26968;42.686;23.352;2023-03-22T05:50:44;94952.50;;;8.45;86.87
41234;BME280;26968;42.686;23.352;2023-03-22T05:53:09;94985.25;;;8.80;87.89
41234;BME280;26968;42.686;23.352;2023-03-22T05:55:36;94991.34;;;8.75;87.67
41234;BME280;26968;42.686;23.352;2023-03-22T05:58:02;94985.00;;;8.66;86.14
41234;BME280;26968;42.686;23.352;2023-03-22T06:00:30;94992.41;;;8.84;86.95
41234;BME280;26968;42.686;23.352;2023-03-22T06:03:00;94925.53;;;8.33;86.80
41234;BME280;26968;42.686;23.352;2023-03-22T06:05:29;94921.03;;;8.24;87.98
41234;BME280;26968;42.686;23.352;2023-03-22T06:08:01;94932.66;;;8.18;87.27
41234;BME280;26968;42.686;23.352;2023-03-22T06:10:26;94983.69;;;8.54;87.07
41234;BME280;26968;42.686;23.352;2023-03-22T06:12:59;94853.69;;;7.86;86.47
41234;BME280;26968;42.686;23.352;2023-03-22T06:15:24;94881.94;;;8.10;86.13
41234;BME280;26968;42.686;23.352;2023-03-22T06:17:50;94927.88;;;8.09;86.97
41234;BME280;26968;42.686;23.352;2023-03-22T06:20:15;94931.06;;;8.27;86.97
41234;BME280;26968;42.686;23.352;2023-03-22T06:22:41;94923.41;;;8.30;86.13
41234;BME280;26968;42.686;23.352;2023-03-22T06:25:08;94923.16;;;8.52;85.68
41234;BME280;26968;42.686;23.352;2023-03-22T06:27:34;94967.53;;;8.55;86.54
41234;BME280;26968;42.686;23.352;2023-03-22T06:29:59;94895.94;;;7.91;87.29
41234;BME280;26968;42.686;23.352;2023-03-22T06:32:25;94923.94;;;8.07;87.59
41234;BME280;26968;42.686;23.352;2023-03-22T06:34:54;95008.81;;;8.46;88.33
41234;BME280;26968;42.686;23.352;2023-03-22T06:37:20;94910.19;;;7.90;88.63
41234;BME280;26968;42.686;23.352;2023-03-22T06:39:45;94912.56;;;8.01;88.17
41234;BME280;26968;42.686;23.352;2023-03-22T06:42:11;94973.34;;;8.62;88.79
41234;BME280;26968;42.686;23.352;2023-03-22T06:44:37;94983.41;;;8.75;88.67
41234;BME280;26968;42.686;23.352;2023-03-22T06:47:03;94999.22;;;9.01;87.14
41234;BME280;26968;42.686;23.352;2023-03-22T06:49:28;94950.09;;;8.69;85.35
41234;BME280;26968;42.686;23.352;2023-03-22T06:51:56;94948.78;;;8.67;84.22
41234;BME280;26968;42.686;23.352;2023-03-22T06:54:21;95018.25;;;9.23;84.30
41234;BME280;26968;42.686;23.352;2023-03-22T06:56:47;94989.94;;;9.18;83.76
41234;BME280;26968;42.686;23.352;2023-03-22T06:59:13;94990.38;;;9.41;84.12
41234;BME280;26968;42.686;23.352;2023-03-22T07:01:39;94960.09;;;8.98;82.88
41234;BME280;26968;42.686;23.352;2023-03-22T07:04:05;95030.34;;;9.49;83.26
41234;BME280;26968;42.686;23.352;2023-03-22T07:06:31;94999.44;;;9.24;83.86
41234;BME280;26968;42.686;23.352;2023-03-22T07:08:57;94950.59;;;8.86;83.55
41234;BME280;26968;42.686;23.352;2023-03-22T07:11:23;94981.78;;;8.89;85.49
41234;BME280;26968;42.686;23.352;2023-03-22T07:13:52;94866.63;;;8.02;85.82
41234;BME280;26968;42.686;23.352;2023-03-22T07:16:17;94999.25;;;8.80;84.24
41234;BME280;26968;42.686;23.352;2023-03-22T07:18:43;94964.88;;;8.70;84.68
41234;BME280;26968;42.686;23.352;2023-03-22T07:21:08;94969.88;;;8.87;85.34
41234;BME280;26968;42.686;23.352;2023-03-22T07:23:35;95043.84;;;9.53;86.18
41234;BME280;26968;42.686;23.352;2023-03-22T07:26:00;95044.34;;;9.60;84.06
41234;BME280;26968;42.686;23.352;2023-03-22T07:28:26;95036.22;;;9.26;82.43
41234;BME280;26968;42.686;23.352;2023-03-22T07:31:09;95051.78;;;9.48;81.81
41234;BME280;26968;42.686;23.352;2023-03-22T07:33:38;94938.69;;;8.99;81.79
41234;BME280;26968;42.686;23.352;2023-03-22T07:36:06;95057.63;;;9.45;81.30
41234;BME280;26968;42.686;23.352;2023-03-22T07:38:32;94961.41;;;9.00;81.01
41234;BME280;26968;42.686;23.352;2023-03-22T07:40:57;94970.31;;;9.24;80.88
41234;BME280;26968;42.686;23.352;2023-03-22T07:43:23;95007.06;;;9.41;80.75
41234;BME280;26968;42.686;23.352;2023-03-22T07:45:49;95050.97;;;9.47;82.22
41234;BME280;26968;42.686;23.352;2023-03-22T07:48:16;94930.78;;;8.79;82.11
41234;BME280;26968;42.686;23.352;2023-03-22T07:50:42;94912.00;;;8.80;81.98
41234;BME280;26968;42.686;23.352;2023-03-22T07:53:09;95002.00;;;9.50;81.26
41234;BME280;26968;42.686;23.352;2023-03-22T07:55:35;95068.84;;;9.86;81.42
41234;BME280;26968;42.686;23.352;2023-03-22T07:58:01;95013.69;;;9.44;80.96
41234;BME280;26968;42.686;23.352;2023-03-22T08:00:27;95052.00;;;9.66;81.12
41234;BME280;26968;42.686;23.352;2023-03-22T08:02:52;95039.28;;;9.63;81.62
41234;BME280;26968;42.686;23.352;2023-03-22T08:05:18;95004.94;;;9.43;80.68
41234;BME280;26968;42.686;23.352;2023-03-22T08:07:46;95075.22;;;9.90;82.09
41234;BME280;26968;42.686;23.352;2023-03-22T08:10:12;95034.50;;;9.71;81.57
41234;BME280;26968;42.686;23.352;2023-03-22T08:12:37;95065.91;;;9.97;81.68
41234;BME280;26968;42.686;23.352;2023-03-22T08:15:04;94948.16;;;9.10;80.74
41234;BME280;26968;42.686;23.352;2023-03-22T08:17:30;95001.84;;;9.16;81.17
41234;BME280;26968;42.686;23.352;2023-03-22T08:19:55;94993.84;;;9.31;82.26
41234;BME280;26968;42.686;23.352;2023-03-22T08:22:21;95077.06;;;9.89;79.96
41234;BME280;26968;42.686;23.352;2023-03-22T08:24:54;95062.03;;;9.75;80.90
41234;BME280;26968;42.686;23.352;2023-03-22T08:27:20;94942.63;;;8.97;81.10
41234;BME280;26968;42.686;23.352;2023-03-22T08:29:45;94998.63;;;9.34;81.51
41234;BME280;26968;42.686;23.352;2023-03-22T08:32:13;95017.44;;;9.27;81.42
41234;BME280;26968;42.686;23.352;2023-03-22T08:34:40;95049.19;;;9.27;81.17
41234;BME280;26968;42.686;23.352;2023-03-22T08:37:07;95004.81;;;8.99;81.41
41234;BME280;26968;42.686;23.352;2023-03-22T08:39:33;94971.25;;;8.49;82.69
41234;BME280;26968;42.686;23.352;2023-03-22T08:41:59;95005.31;;;8.86;83.23
41234;BME280;26968;42.686;23.352;2023-03-22T08:44:25;95025.94;;;9.09;83.45
41234;BME280;26968;42.686;23.352;2023-03-22T08:46:51;95007.66;;;9.23;82.80
41234;BME280;26968;42.686;23.352;2023-03-22T08:49:16;95008.16;;;9.35;83.53
41234;BME280;26968;42.686;23.352;2023-03-22T08:51:42;95073.41;;;9.70;81.01
41234;BME280;26968;42.686;23.352;2023-03-22T08:54:08;94979.88;;;9.20;82.31
41234;BME280;26968;42.686;23.352;2023-03-22T08:56:33;95026.09;;;9.53;83.13
41234;BME280;26968;42.686;23.352;2023-03-22T08:59:07;95094.78;;;9.99;81.38
41234;BME280;26968;42.686;23.352;2023-03-22T09:01:34;95095.59;;;9.84;80.09
41234;BME280;26968;42.686;23.352;2023-03-22T09:04:00;95022.75;;;9.17;81.50
41234;BME280;26968;42.686;23.352;2023-03-22T09:06:26;95046.25;;;9.34;83.29
41234;BME280;26968;42.686;23.352;2023-03-22T09:08:52;95096.75;;;9.58;82.30
41234;BME280;26968;42.686;23.352;2023-03-22T09:11:18;95101.25;;;9.57;82.23
41234;BME280;26968;42.686;23.352;2023-03-22T09:13:45;95095.94;;;9.67;84.26
41234;BME280;26968;42.686;23.352;2023-03-22T09:16:11;95081.13;;;9.56;83.70
41234;BME280;26968;42.686;23.352;2023-03-22T09:18:38;95102.78;;;9.84;83.36
41234;BME280;26968;42.686;23.352;2023-03-22T09:21:05;95037.75;;;9.52;83.77
41234;BME280;26968;42.686;23.352;2023-03-22T09:23:31;95027.44;;;9.46;83.40
41234;BME280;26968;42.686;23.352;2023-03-22T09:26:03;95067.84;;;9.82;83.41
41234;BME280;26968;42.686;23.352;2023-03-22T09:28:29;95070.19;;;9.88;83.95
41234;BME280;26968;42.686;23.352;2023-03-22T09:30:59;95108.00;;;10.04;83.49
41234;BME280;26968;42.686;23.352;2023-03-22T09:33:25;95039.59;;;9.47;82.53
41234;BME280;26968;42.686;23.352;2023-03-22T09:35:52;95024.81;;;9.46;82.32
41234;BME280;26968;42.686;23.352;2023-03-22T09:38:18;95050.94;;;9.67;82.48
41234;BME280;26968;42.686;23.352;2023-03-22T09:40:54;94988.59;;;9.26;81.17
41234;BME280;26968;42.686;23.352;2023-03-22T09:43:32;95107.78;;;9.95;80.95
41234;BME280;26968;42.686;23.352;2023-03-22T09:46:04;95106.09;;;10.15;81.64
41234;BME280;26968;42.686;23.352;2023-03-22T09:48:34;95002.03;;;9.40;80.26
41234;BME280;26968;42.686;23.352;2023-03-22T09:51:03;95095.81;;;10.03;79.93
41234;BME280;26968;42.686;23.352;2023-03-22T09:53:31;95063.91;;;9.64;80.28
41234;BME280;26968;42.686;23.352;2023-03-22T09:56:13;95076.31;;;9.79;80.09
41234;BME280;26968;42.686;23.352;2023-03-22T09:58:53;95113.00;;;10.11;81.18
41234;BME280;26968;42.686;23.352;2023-03-22T10:01:36;95102.63;;;10.24;80.54
41234;BME280;26968;42.686;23.352;2023-03-22T10:06:49;95102.81;;;10.43;80.95
41234;BME280;26968;42.686;23.352;2023-03-22T10:10:02;95111.69;;;10.67;79.98
41234;BME280;26968;42.686;23.352;2023-03-22T10:17:55;95064.88;;;10.48;78.88
41234;BME280;26968;42.686;23.352;2023-03-22T10:20:52;95117.28;;;11.00;78.05
41234;BME280;26968;42.686;23.352;2023-03-22T10:23:37;95118.13;;;10.95;78.42
41234;BME280;26968;42.686;23.352;2023-03-22T10:26:05;95122.88;;;10.98;77.83
41234;BME280;26968;42.686;23.352;2023-03-22T10:28:40;95076.84;;;10.40;78.50
41234;BME280;26968;42.686;23.352;2023-03-22T10:31:18;95085.97;;;10.68;78.28
41234;BME280;26968;42.686;23.352;2023-03-22T10:36:16;95070.22;;;10.76;77.90
41234;BME280;26968;42.686;23.352;2023-03-22T10:38:47;94986.56;;;10.16;78.82
41234;BME280;26968;42.686;23.352;2023-03-22T10:41:16;95116.41;;;11.09;78.71
41234;BME280;26968;42.686;23.352;2023-03-22T10:43:44;95083.38;;;10.92;77.89
41234;BME280;26968;42.686;23.352;2023-03-22T10:46:18;95089.41;;;11.02;78.02
41234;BME280;26968;42.686;23.352;2023-03-22T10:48:51;95115.56;;;11.19;77.25
41234;BME280;26968;42.686;23.352;2023-03-22T10:51:28;95115.31;;;11.15;75.89
41234;BME280;26968;42.686;23.352;2023-03-22T10:53:55;95004.56;;;10.63;76.25
41234;BME280;26968;42.686;23.352;2023-03-22T10:56:22;95060.94;;;11.13;76.13
41234;BME280;26968;42.686;23.352;2023-03-22T10:58:49;95008.94;;;10.78;76.30
41234;BME280;26968;42.686;23.352;2023-03-22T11:01:24;95020.28;;;10.83;75.55
41234;BME280;26968;42.686;23.352;2023-03-22T11:03:56;95072.47;;;11.27;75.76
41234;BME280;26968;42.686;23.352;2023-03-22T11:06:25;95052.66;;;11.14;74.85
41234;BME280;26968;42.686;23.352;2023-03-22T11:09:21;95098.28;;;11.50;74.36
41234;BME280;26968;42.686;23.352;2023-03-22T11:12:14;95104.06;;;11.52;73.83
41234;BME280;26968;42.686;23.352;2023-03-22T11:14:44;95097.63;;;11.35;72.88
41234;BME280;26968;42.686;23.352;2023-03-22T11:17:19;94918.47;;;10.17;73.00
41234;BME280;26968;42.686;23.352;2023-03-22T11:20:04;95064.00;;;11.25;73.26
41234;BME280;26968;42.686;23.352;2023-03-22T11:22:45;95084.56;;;11.38;73.38
41234;BME280;26968;42.686;23.352;2023-03-22T11:25:19;95071.69;;;11.27;72.42
41234;BME280;26968;42.686;23.352;2023-03-22T11:27:55;95085.56;;;11.47;72.90
41234;BME280;26968;42.686;23.352;2023-03-22T11:30:26;95048.91;;;11.20;73.31
41234;BME280;26968;42.686;23.352;2023-03-22T11:35:35;95098.75;;;11.52;71.67
41234;BME280;26968;42.686;23.352;2023-03-22T11:38:01;95069.31;;;11.25;71.94
41234;BME280;26968;42.686;23.352;2023-03-22T11:40:32;95060.13;;;11.12;72.45
41234;BME280;26968;42.686;23.352;2023-03-22T11:43:25;95092.59;;;11.33;73.07
41234;BME280;26968;42.686;23.352;2023-03-22T11:45:56;95045.69;;;11.23;72.56
41234;BME280;26968;42.686;23.352;2023-03-22T11:48:28;95003.63;;;10.83;71.45
41234;BME280;26968;42.686;23.352;2023-03-22T11:51:02;95058.56;;;11.11;73.01
41234;BME280;26968;42.686;23.352;2023-03-22T11:53:31;95068.91;;;11.13;73.60
41234;BME280;26968;42.686;23.352;2023-03-22T11:55:58;95004.25;;;10.70;73.72
41234;BME280;26968;42.686;23.352;2023-03-22T11:58:57;95094.50;;;11.28;74.08
41234;BME280;26968;42.686;23.352;2023-03-22T12:04:06;95013.31;;;10.93;73.11
41234;BME280;26968;42.686;23.352;2023-03-22T12:06:36;95060.81;;;11.23;72.47
41234;BME280;26968;42.686;23.352;2023-03-22T12:09:11;95097.44;;;11.26;73.61
41234;BME280;26968;42.686;23.352;2023-03-22T12:11:45;95083.63;;;10.95;73.52
41234;BME280;26968;42.686;23.352;2023-03-22T12:14:18;95077.72;;;11.03;74.02
41234;BME280;26968;42.686;23.352;2023-03-22T12:16:49;95092.34;;;10.67;74.77
41234;BME280;26968;42.686;23.352;2023-03-22T12:21:51;94967.13;;;9.38;78.26
41234;BME280;26968;42.686;23.352;2023-03-22T12:24:29;95082.88;;;10.51;78.00
41234;BME280;26968;42.686;23.352;2023-03-22T12:27:03;95047.03;;;10.58;79.16
41234;BME280;26968;42.686;23.352;2023-03-22T12:29:34;95047.16;;;10.77;79.06
41234;BME280;26968;42.686;23.352;2023-03-22T12:32:05;95047.13;;;10.82;78.89
41234;BME280;26968;42.686;23.352;2023-03-22T12:34:43;95011.06;;;10.76;79.19
41234;BME280;26968;42.686;23.352;2023-03-22T12:37:16;95089.00;;;10.85;78.05
41234;BME280;26968;42.686;23.352;2023-03-22T12:40:05;95071.78;;;10.82;78.43
41234;BME280;26968;42.686;23.352;2023-03-22T12:45:31;95050.22;;;11.47;77.73
41234;BME280;26968;42.686;23.352;2023-03-22T12:50:33;95076.25;;;11.74;74.87
41234;BME280;26968;42.686;23.352;2023-03-22T12:53:00;95078.91;;;11.50;72.19
41234;BME280;26968;42.686;23.352;2023-03-22T12:55:31;95079.38;;;11.52;72.18
41234;BME280;26968;42.686;23.352;2023-03-22T12:57:58;94996.63;;;11.21;71.40
41234;BME280;26968;42.686;23.352;2023-03-22T13:00:33;94960.81;;;11.18;71.87
41234;BME280;26968;42.686;23.352;2023-03-22T13:05:47;95060.28;;;11.79;70.12
41234;BME280;26968;42.686;23.352;2023-03-22T13:08:18;94962.72;;;11.13;70.41
41234;BME280;26968;42.686;23.352;2023-03-22T13:11:00;95068.25;;;12.03;69.98
41234;BME280;26968;42.686;23.352;2023-03-22T13:13:39;95069.81;;;12.04;69.47
41234;BME280;26968;42.686;23.352;2023-03-22T13:16:14;95045.75;;;11.95;70.01
41234;BME280;26968;42.686;23.352;2023-03-22T13:21:25;95075.91;;;11.56;70.27
41234;BME280;26968;42.686;23.352;2023-03-22T13:26:48;95052.38;;;11.21;71.44
41234;BME280;26968;42.686;23.352;2023-03-22T13:32:01;95072.06;;;11.44;73.56
41234;BME280;26968;42.686;23.352;2023-03-22T13:34:39;95023.91;;;11.27;73.05
41234;BME280;26968;42.686;23.352;2023-03-22T13:37:15;95007.69;;;11.28;73.52
41234;BME280;26968;42.686;23.352;2023-03-22T13:39:49;94978.13;;;11.11;74.58
41234;BME280;26968;42.686;23.352;2023-03-22T13:42:20;95062.66;;;11.80;75.66
41234;BME280;26968;42.686;23.352;2023-03-22T13:44:54;95027.19;;;11.66;77.63
41234;BME280;26968;42.686;23.352;2023-03-22T13:47:36;95065.16;;;12.14;78.62
41234;BME280;26968;42.686;23.352;2023-03-22T13:50:17;95030.59;;;12.14;77.77
41234;BME280;26968;42.686;23.352;2023-03-22T13:53:17;94960.97;;;11.93;77.35
41234;BME280;26968;42.686;23.352;2023-03-22T14:01:06;95002.31;;;13.07;72.77
41234;BME280;26968;42.686;23.352;2023-03-22T14:03:40;95070.00;;;13.66;73.98
41234;BME280;26968;42.686;23.352;2023-03-22T14:06:12;94998.16;;;13.61;71.03
41234;BME280;26968;42.686;23.352;2023-03-22T14:08:41;95053.09;;;14.11;69.25
41234;BME280;26968;42.686;23.352;2023-03-22T14:11:28;95061.28;;;14.28;67.64
41234;BME280;26968;42.686;23.352;2023-03-22T14:14:09;95062.69;;;14.12;67.47
41234;BME280;26968;42.686;23.352;2023-03-22T14:19:29;94988.97;;;13.53;67.92
41234;BME280;26968;42.686;23.352;2023-03-22T14:21:59;95062.41;;;14.00;68.31
41234;BME280;26968;42.686;23.352;2023-03-22T14:24:29;95064.97;;;13.91;67.42
41234;BME280;26968;42.686;23.352;2023-03-22T14:26:58;95068.72;;;13.90;67.01
41234;BME280;26968;42.686;23.352;2023-03-22T14:29:26;95034.34;;;13.34;65.92
41234;BME280;26968;42.686;23.352;2023-03-22T14:31:57;95050.13;;;13.44;66.34
41234;BME280;26968;42.686;23.352;2023-03-22T14:34:25;95020.81;;;13.17;65.93
41234;BME280;26968;42.686;23.352;2023-03-22T14:36:57;95045.28;;;13.19;68.36